Blue Star Naxos — SZUI — position and weather

sailwx.info

Track history (hours):
 
Tides and Currents Weather Stations Pressure Air Temp Water Temp Dewpoint Dewpoint Depression Visibility Wind Speed Wind Dir Waves Ship Positions

Blue Star Naxos

Last reported at 2014-Nov-23 05:33 UTC. Time now 2014-Nov-23 06:06 UTC.
Position N 36°52' E 025°30'.

Length 124 m; draft 5 m.

Type: Passenger vessel. MMSI: 239923000.

Date/timePositionNaut miles runAvg speedWind from/ knotsBaromVisibWave heightAir tempDewpointWater temp
2014-Nov-23 05:33N 36°52' E 025°30'1110.8
2014-Nov-23 04:33N 36°54' E 025°44'8 1.0
2014-Nov-22 20:22N 36°50' E 025°52'0 0.0
2014-Nov-22 18:13N 36°50' E 025°52'0 0.0
2014-Nov-22 17:09N 36°50' E 025°52'0 0.0
2014-Nov-22 16:33N 36°50' E 025°52'0 0.0
2014-Nov-22 14:22N 36°50' E 025°52'0 0.0
2014-Nov-22 13:22N 36°50' E 025°52'0 0.0
2014-Nov-22 12:25N 36°50' E 025°52'0 0.0
2014-Nov-22 11:21N 36°50' E 025°52'0 0.0
2014-Nov-22 10:33N 36°50' E 025°52'0 0.0
2014-Nov-22 09:33N 36°50' E 025°52'0 0.0
2014-Nov-22 08:30N 36°50' E 025°52'0 0.0
2014-Nov-22 07:32N 36°50' E 025°52'0 0.0
2014-Nov-22 06:28N 36°50' E 025°52'0 0.0
2014-Nov-22 05:29N 36°50' E 025°52'0 0.0
2014-Nov-22 02:22N 36°50' E 025°52'0 0.0
2014-Nov-22 01:16N 36°50' E 025°52'0 0.1
2014-Nov-22 00:29N 36°50' E 025°52'1415.1
2014-Nov-21 23:33N 36°56' E 025°36'7 6.7
2014-Nov-21 22:33N 36°52' E 025°29'1515.0
2014-Nov-21 21:33N 37°06' E 025°22'1110.7
2014-Nov-21 20:33N 37°07' E 025°09'7 6.9
2014-Nov-21 19:33N 37°08' E 025°00'2222.2
2014-Nov-21 18:33N 37°14' E 024°33'4522.1
2014-Nov-21 16:31N 37°39' E 023°45'1919.7
2014-Nov-21 15:33N 37°57' E 023°38'0 0.4
2014-Nov-21 14:33N 37°57' E 023°38'0 0.0
2014-Nov-21 13:33N 37°57' E 023°38'9 9.2
2014-Nov-21 12:33N 37°48' E 023°42'4822.0
2014-Nov-21 10:23N 37°16' E 024°27'1822.4
2014-Nov-21 09:34N 37°12' E 024°49'1715.0
2014-Nov-21 08:26N 37°05' E 025°09'1112.2
2014-Nov-21 07:33N 37°06' E 025°22'1111.0
2014-Nov-21 06:33N 37°13' E 025°33'1717.0
2014-Nov-21 05:34N 37°02' E 025°49'1110.7
2014-Nov-21 04:33N 36°57' E 026°01'2221.6
2014-Nov-21 03:33N 36°40' E 026°17'1 1.3
2014-Nov-21 02:33N 36°39' E 026°18'2221.7
2014-Nov-21 01:33N 36°58' E 026°06'7 7.0
2014-Nov-21 00:33N 36°54' E 025°58'1716.7
2014-Nov-20 23:33N 37°07' E 025°45'1818.1
2014-Nov-20 22:34N 37°08' E 025°22'9 8.8
2014-Nov-20 21:33N 37°09' E 025°11'6 5.7
2014-Nov-20 20:33N 37°11' E 025°05'1616.0
2014-Nov-20 19:31N 37°26' E 024°57'1414.8
2014-Nov-20 18:33N 37°32' E 024°40'2221.6
2014-Nov-20 17:33N 37°32' E 024°13'2322.0
2014-Nov-20 16:32N 37°38' E 023°45'1920.0
2014-Nov-20 15:33N 37°57' E 023°38'0 0.3
2014-Nov-20 14:33N 37°57' E 023°38'0 0.0
2014-Nov-20 13:33N 37°57' E 023°38'10 9.6
2014-Nov-20 12:33N 37°48' E 023°42'4522.0
2014-Nov-20 10:32N 37°17' E 024°23'2222.5
2014-Nov-20 09:33N 37°11' E 024°49'1613.3
2014-Nov-20 08:20N 37°05' E 025°08'1114.3
2014-Nov-20 07:33N 37°06' E 025°22'1212.3
2014-Nov-20 06:33N 37°11' E 025°37'1716.9
2014-Nov-20 05:33N 36°59' E 025°52'1010.0
2014-Nov-20 04:33N 36°56' E 026°04'2121.0
2014-Nov-20 03:33N 36°38' E 026°18'4 2.8
2014-Nov-20 02:06N 36°35' E 026°21'1017.8
2014-Nov-20 01:33N 36°43' E 026°14'1918.7
2014-Nov-20 00:33N 36°57' E 025°59'6 5.6
2014-Nov-19 23:33N 36°59' E 025°53'2017.7
2014-Nov-19 22:25N 37°12' E 025°34'1112.9
2014-Nov-19 21:33N 37°06' E 025°22'11 9.4
2014-Nov-19 20:26N 37°05' E 025°09'1213.6
2014-Nov-19 19:33N 37°11' E 024°56'2222.1
2014-Nov-19 18:33N 37°25' E 024°34'1918.5
2014-Nov-19 17:33N 37°28' E 024°11'2222.2
2014-Nov-19 16:33N 37°38' E 023°46'1919.5
2014-Nov-19 15:33N 37°57' E 023°38'0 0.4
2014-Nov-19 14:34N 37°57' E 023°38'0 0.0
2014-Nov-19 13:34N 37°57' E 023°38'9 8.9
2014-Nov-19 12:33N 37°48' E 023°41'4622.2
2014-Nov-19 10:30N 37°17' E 024°23'2122.6
2014-Nov-19 09:33N 37°11' E 024°49'1715.3
2014-Nov-19 08:27N 37°05' E 025°09'1011.8
2014-Nov-19 07:33N 37°06' E 025°22'6 6.3
2014-Nov-19 06:33N 37°00' E 025°20'1212.0
2014-Nov-19 05:33N 36°52' E 025°31'1010.0
2014-Nov-19 04:33N 36°54' E 025°43'8 8.3
2014-Nov-19 03:33N 36°50' E 025°52'0 0.0
2014-Nov-19 01:27N 36°50' E 025°52'1410.8
2014-Nov-19 00:10N 36°56' E 025°36'6 9.4
2014-Nov-18 23:33N 36°52' E 025°31'1413.9
2014-Nov-18 22:34N 37°02' E 025°19'8 8.3
2014-Nov-18 21:34N 37°10' E 025°15'8 7.4
2014-Nov-18 20:33N 37°08' E 025°06'2017.5
2014-Nov-18 19:25N 37°26' E 024°57'1315.3
2014-Nov-18 18:33N 37°30' E 024°41'2222.0
2014-Nov-18 17:33N 37°31' E 024°13'2322.2
2014-Nov-18 16:32N 37°39' E 023°46'1919.2
2014-Nov-18 15:34N 37°56' E 023°38'1 0.5
2014-Nov-18 14:33N 37°57' E 023°38'0 0.0
2014-Nov-18 13:08N 37°57' E 023°38'1016.9
2014-Nov-18 12:33N 37°47' E 023°42'4522.1
2014-Nov-18 10:32N 37°17' E 024°23'2222.5
2014-Nov-18 09:33N 37°10' E 024°49'1612.9
2014-Nov-18 08:19N 37°05' E 025°08'1114.5
2014-Nov-18 07:33N 37°06' E 025°22'1110.9
2014-Nov-18 06:32N 37°13' E 025°33'1818.0
2014-Nov-18 05:33N 37°02' E 025°50'1111.1
2014-Nov-18 04:33N 36°56' E 026°03'2421.5
2014-Nov-18 03:27N 36°36' E 026°19'2 1.2
2014-Nov-18 01:24N 36°35' E 026°21'1821.0
2014-Nov-18 00:33N 36°50' E 026°10'1010.2
2014-Nov-17 23:34N 36°54' E 025°58'1615.7
2014-Nov-17 22:33N 37°06' E 025°46'1818.4
2014-Nov-17 21:33N 37°08' E 025°23'7 7.0
2014-Nov-17 20:33N 37°10' E 025°14'1010.5
2014-Nov-17 19:33N 37°07' E 025°01'2222.3
2014-Nov-17 18:33N 37°14' E 024°35'4522.5
2014-Nov-17 16:33N 37°37' E 023°47'2020.3
2014-Nov-17 15:33N 37°56' E 023°38'1 0.5
2014-Nov-17 14:33N 37°57' E 023°38'0 0.0
2014-Nov-17 13:33N 37°57' E 023°38'10 9.5
2014-Nov-17 12:33N 37°48' E 023°42'4522.1
2014-Nov-17 10:32N 37°17' E 024°23'2222.7
2014-Nov-17 09:33N 37°10' E 024°49'1615.7
2014-Nov-17 08:30N 37°05' E 025°09'1111.2
2014-Nov-17 07:34N 37°06' E 025°22'6 5.8
2014-Nov-17 06:33N 37°01' E 025°19'1312.8
2014-Nov-17 05:33N 36°52' E 025°31'1110.7
2014-Nov-17 04:33N 36°53' E 025°44'7 2.1
2014-Nov-17 01:07N 36°50' E 025°52'4 7.3
2014-Nov-17 00:33N 36°51' E 025°47'1414.1
2014-Nov-16 23:33N 36°53' E 025°30'8 7.6
2014-Nov-16 22:33N 36°57' E 025°22'1111.0
2014-Nov-16 21:33N 37°08' E 025°20'1010.5
2014-Nov-16 20:34N 37°07' E 025°07'2221.4
2014-Nov-16 19:33N 37°26' E 024°57'1212.4
2014-Nov-16 18:33N 37°31' E 024°42'2322.3
2014-Nov-16 17:33N 37°31' E 024°14'2522.5
2014-Nov-16 16:26N 37°39' E 023°44'1820.6
2014-Nov-16 15:33N 37°56' E 023°38'1 0.5
2014-Nov-16 14:32N 37°57' E 023°38'0 0.0
2014-Nov-16 13:33N 37°57' E 023°38'8 7.6
2014-Nov-16 12:33N 37°49' E 023°41'4522.3
2014-Nov-16 10:32N 37°18' E 024°21'2222.7
2014-Nov-16 09:33N 37°11' E 024°48'1713.9
2014-Nov-16 08:18N 37°05' E 025°08'1114.7
2014-Nov-16 07:34N 37°06' E 025°22'6 6.1
2014-Nov-16 06:34N 37°01' E 025°19'1212.3
2014-Nov-16 05:33N 36°52' E 025°31'1010.0
2014-Nov-16 04:33N 36°54' E 025°43'9 0.3
2014-Nov-15 00:20N 36°50' E 025°52'1417.8
2014-Nov-14 23:33N 36°56' E 025°36'7 7.3
2014-Nov-14 22:33N 36°52' E 025°28'1515.1
2014-Nov-14 21:33N 37°06' E 025°22'1110.4
2014-Nov-14 20:31N 37°07' E 025°09'8 7.9
2014-Nov-14 19:33N 37°08' E 024°59'2222.2
2014-Nov-14 18:33N 37°14' E 024°33'4622.2
2014-Nov-14 16:29N 37°39' E 023°44'1819.5
2014-Nov-14 15:34N 37°57' E 023°38'0 0.2
2014-Nov-14 14:33N 37°57' E 023°38'9 4.5
2014-Nov-14 12:33N 37°48' E 023°41'4221.3
2014-Nov-14 10:33N 37°28' E 024°29'2222.4
2014-Nov-14 09:33N 37°15' E 024°51'1716.1
2014-Nov-14 08:30N 37°05' E 025°09'1011.1
2014-Nov-14 07:34N 37°06' E 025°22'10 9.5
2014-Nov-14 06:33N 37°13' E 025°31'1818.5
2014-Nov-14 05:33N 37°02' E 025°50'1212.2
2014-Nov-14 04:33N 36°56' E 026°03'2222.2
2014-Nov-14 03:32N 36°37' E 026°18'3 2.6
2014-Nov-14 02:18N 36°35' E 026°21'1722.8
2014-Nov-14 01:34N 36°49' E 026°10'1111.0
2014-Nov-14 00:34N 36°54' E 025°58'1918.7
2014-Nov-13 23:33N 37°08' E 025°42'1615.8
2014-Nov-13 22:33N 37°06' E 025°22'1110.8
2014-Nov-13 21:33N 37°07' E 025°09'7 7.3
2014-Nov-13 20:34N 37°14' E 025°04'1413.3
2014-Nov-13 19:30N 37°26' E 024°57'1415.3
2014-Nov-13 18:33N 37°30' E 024°39'2221.7
2014-Nov-13 17:33N 37°30' E 024°12'2222.2
2014-Nov-13 16:33N 37°39' E 023°46'11 2.8
2014-Nov-13 12:33N 37°49' E 023°41'4721.3
2014-Nov-13 10:20N 37°26' E 024°33'1722.6
2014-Nov-13 09:33N 37°15' E 024°50'1712.7
2014-Nov-13 08:15N 37°06' E 025°07'1217.1
2014-Nov-13 07:33N 37°06' E 025°22'1615.4
2014-Nov-13 06:33N 37°09' E 025°41'1414.2
2014-Nov-13 05:33N 36°59' E 025°53'  
Track history (hours):
 
Tides and Currents Weather Stations Pressure Air Temp Water Temp Dewpoint Dewpoint Depression Visibility Wind Speed Wind Dir Waves Ship Positions

Blue Star Naxos

Last reported at 2014-Nov-23 05:33 UTC. Time now 2014-Nov-23 06:06 UTC.
Position N 36°52' E 025°30'.

Length 124 m; draft 5 m.

Type: Passenger vessel. MMSI: 239923000.

Date/timePositionNaut miles runAvg speedWind from/ knotsBaromVisibWave heightAir tempDewpointWater temp
2014-Nov-23 05:33N 36°52' E 025°30'1110.8
2014-Nov-23 04:33N 36°54' E 025°44'8 1.0
2014-Nov-22 20:22N 36°50' E 025°52'0 0.0
2014-Nov-22 18:13N 36°50' E 025°52'0 0.0
2014-Nov-22 17:09N 36°50' E 025°52'0 0.0
2014-Nov-22 16:33N 36°50' E 025°52'0 0.0
2014-Nov-22 14:22N 36°50' E 025°52'0 0.0
2014-Nov-22 13:22N 36°50' E 025°52'0 0.0
2014-Nov-22 12:25N 36°50' E 025°52'0 0.0
2014-Nov-22 11:21N 36°50' E 025°52'0 0.0
2014-Nov-22 10:33N 36°50' E 025°52'0 0.0
2014-Nov-22 09:33N 36°50' E 025°52'0 0.0
2014-Nov-22 08:30N 36°50' E 025°52'0 0.0
2014-Nov-22 07:32N 36°50' E 025°52'0 0.0
2014-Nov-22 06:28N 36°50' E 025°52'0 0.0
2014-Nov-22 05:29N 36°50' E 025°52'0 0.0
2014-Nov-22 02:22N 36°50' E 025°52'0 0.0
2014-Nov-22 01:16N 36°50' E 025°52'0 0.1
2014-Nov-22 00:29N 36°50' E 025°52'1415.1
2014-Nov-21 23:33N 36°56' E 025°36'7 6.7
2014-Nov-21 22:33N 36°52' E 025°29'1515.0
2014-Nov-21 21:33N 37°06' E 025°22'1110.7
2014-Nov-21 20:33N 37°07' E 025°09'7 6.9
2014-Nov-21 19:33N 37°08' E 025°00'2222.2
2014-Nov-21 18:33N 37°14' E 024°33'4522.1
2014-Nov-21 16:31N 37°39' E 023°45'1919.7
2014-Nov-21 15:33N 37°57' E 023°38'0 0.4
2014-Nov-21 14:33N 37°57' E 023°38'0 0.0
2014-Nov-21 13:33N 37°57' E 023°38'9 9.2
2014-Nov-21 12:33N 37°48' E 023°42'4822.0
2014-Nov-21 10:23N 37°16' E 024°27'1822.4
2014-Nov-21 09:34N 37°12' E 024°49'1715.0
2014-Nov-21 08:26N 37°05' E 025°09'1112.2
2014-Nov-21 07:33N 37°06' E 025°22'1111.0
2014-Nov-21 06:33N 37°13' E 025°33'1717.0
2014-Nov-21 05:34N 37°02' E 025°49'1110.7
2014-Nov-21 04:33N 36°57' E 026°01'2221.6
2014-Nov-21 03:33N 36°40' E 026°17'1 1.3
2014-Nov-21 02:33N 36°39' E 026°18'2221.7
2014-Nov-21 01:33N 36°58' E 026°06'7 7.0
2014-Nov-21 00:33N 36°54' E 025°58'1716.7
2014-Nov-20 23:33N 37°07' E 025°45'1818.1
2014-Nov-20 22:34N 37°08' E 025°22'9 8.8
2014-Nov-20 21:33N 37°09' E 025°11'6 5.7
2014-Nov-20 20:33N 37°11' E 025°05'1616.0
2014-Nov-20 19:31N 37°26' E 024°57'1414.8
2014-Nov-20 18:33N 37°32' E 024°40'2221.6
2014-Nov-20 17:33N 37°32' E 024°13'2322.0
2014-Nov-20 16:32N 37°38' E 023°45'1920.0
2014-Nov-20 15:33N 37°57' E 023°38'0 0.3
2014-Nov-20 14:33N 37°57' E 023°38'0 0.0
2014-Nov-20 13:33N 37°57' E 023°38'10 9.6
2014-Nov-20 12:33N 37°48' E 023°42'4522.0
2014-Nov-20 10:32N 37°17' E 024°23'2222.5
2014-Nov-20 09:33N 37°11' E 024°49'1613.3
2014-Nov-20 08:20N 37°05' E 025°08'1114.3
2014-Nov-20 07:33N 37°06' E 025°22'1212.3
2014-Nov-20 06:33N 37°11' E 025°37'1716.9
2014-Nov-20 05:33N 36°59' E 025°52'1010.0
2014-Nov-20 04:33N 36°56' E 026°04'2121.0
2014-Nov-20 03:33N 36°38' E 026°18'4 2.8
2014-Nov-20 02:06N 36°35' E 026°21'1017.8
2014-Nov-20 01:33N 36°43' E 026°14'1918.7
2014-Nov-20 00:33N 36°57' E 025°59'6 5.6
2014-Nov-19 23:33N 36°59' E 025°53'2017.7
2014-Nov-19 22:25N 37°12' E 025°34'1112.9
2014-Nov-19 21:33N 37°06' E 025°22'11 9.4
2014-Nov-19 20:26N 37°05' E 025°09'1213.6
2014-Nov-19 19:33N 37°11' E 024°56'2222.1
2014-Nov-19 18:33N 37°25' E 024°34'1918.5
2014-Nov-19 17:33N 37°28' E 024°11'2222.2
2014-Nov-19 16:33N 37°38' E 023°46'1919.5
2014-Nov-19 15:33N 37°57' E 023°38'0 0.4
2014-Nov-19 14:34N 37°57' E 023°38'0 0.0
2014-Nov-19 13:34N 37°57' E 023°38'9 8.9
2014-Nov-19 12:33N 37°48' E 023°41'4622.2
2014-Nov-19 10:30N 37°17' E 024°23'2122.6
2014-Nov-19 09:33N 37°11' E 024°49'1715.3
2014-Nov-19 08:27N 37°05' E 025°09'1011.8
2014-Nov-19 07:33N 37°06' E 025°22'6 6.3
2014-Nov-19 06:33N 37°00' E 025°20'1212.0
2014-Nov-19 05:33N 36°52' E 025°31'1010.0
2014-Nov-19 04:33N 36°54' E 025°43'8 8.3
2014-Nov-19 03:33N 36°50' E 025°52'0 0.0
2014-Nov-19 01:27N 36°50' E 025°52'1410.8
2014-Nov-19 00:10N 36°56' E 025°36'6 9.4
2014-Nov-18 23:33N 36°52' E 025°31'1413.9
2014-Nov-18 22:34N 37°02' E 025°19'8 8.3
2014-Nov-18 21:34N 37°10' E 025°15'8 7.4
2014-Nov-18 20:33N 37°08' E 025°06'2017.5
2014-Nov-18 19:25N 37°26' E 024°57'1315.3
2014-Nov-18 18:33N 37°30' E 024°41'2222.0
2014-Nov-18 17:33N 37°31' E 024°13'2322.2
2014-Nov-18 16:32N 37°39' E 023°46'1919.2
2014-Nov-18 15:34N 37°56' E 023°38'1 0.5
2014-Nov-18 14:33N 37°57' E 023°38'0 0.0
2014-Nov-18 13:08N 37°57' E 023°38'1016.9
2014-Nov-18 12:33N 37°47' E 023°42'4522.1
2014-Nov-18 10:32N 37°17' E 024°23'2222.5
2014-Nov-18 09:33N 37°10' E 024°49'1612.9
2014-Nov-18 08:19N 37°05' E 025°08'1114.5
2014-Nov-18 07:33N 37°06' E 025°22'1110.9
2014-Nov-18 06:32N 37°13' E 025°33'1818.0
2014-Nov-18 05:33N 37°02' E 025°50'1111.1
2014-Nov-18 04:33N 36°56' E 026°03'2421.5
2014-Nov-18 03:27N 36°36' E 026°19'2 1.2
2014-Nov-18 01:24N 36°35' E 026°21'1821.0
2014-Nov-18 00:33N 36°50' E 026°10'1010.2
2014-Nov-17 23:34N 36°54' E 025°58'1615.7
2014-Nov-17 22:33N 37°06' E 025°46'1818.4
2014-Nov-17 21:33N 37°08' E 025°23'7 7.0
2014-Nov-17 20:33N 37°10' E 025°14'1010.5
2014-Nov-17 19:33N 37°07' E 025°01'2222.3
2014-Nov-17 18:33N 37°14' E 024°35'4522.5
2014-Nov-17 16:33N 37°37' E 023°47'2020.3
2014-Nov-17 15:33N 37°56' E 023°38'1 0.5
2014-Nov-17 14:33N 37°57' E 023°38'0 0.0
2014-Nov-17 13:33N 37°57' E 023°38'10 9.5
2014-Nov-17 12:33N 37°48' E 023°42'4522.1
2014-Nov-17 10:32N 37°17' E 024°23'2222.7
2014-Nov-17 09:33N 37°10' E 024°49'1615.7
2014-Nov-17 08:30N 37°05' E 025°09'1111.2
2014-Nov-17 07:34N 37°06' E 025°22'6 5.8
2014-Nov-17 06:33N 37°01' E 025°19'1312.8
2014-Nov-17 05:33N 36°52' E 025°31'1110.7
2014-Nov-17 04:33N 36°53' E 025°44'7 2.1
2014-Nov-17 01:07N 36°50' E 025°52'4 7.3
2014-Nov-17 00:33N 36°51' E 025°47'1414.1
2014-Nov-16 23:33N 36°53' E 025°30'8 7.6
2014-Nov-16 22:33N 36°57' E 025°22'1111.0
2014-Nov-16 21:33N 37°08' E 025°20'1010.5
2014-Nov-16 20:34N 37°07' E 025°07'2221.4
2014-Nov-16 19:33N 37°26' E 024°57'1212.4
2014-Nov-16 18:33N 37°31' E 024°42'2322.3
2014-Nov-16 17:33N 37°31' E 024°14'2522.5
2014-Nov-16 16:26N 37°39' E 023°44'1820.6
2014-Nov-16 15:33N 37°56' E 023°38'1 0.5
2014-Nov-16 14:32N 37°57' E 023°38'0 0.0
2014-Nov-16 13:33N 37°57' E 023°38'8 7.6
2014-Nov-16 12:33N 37°49' E 023°41'4522.3
2014-Nov-16 10:32N 37°18' E 024°21'2222.7
2014-Nov-16 09:33N 37°11' E 024°48'1713.9
2014-Nov-16 08:18N 37°05' E 025°08'1114.7
2014-Nov-16 07:34N 37°06' E 025°22'6 6.1
2014-Nov-16 06:34N 37°01' E 025°19'1212.3
2014-Nov-16 05:33N 36°52' E 025°31'1010.0
2014-Nov-16 04:33N 36°54' E 025°43'9 0.3
2014-Nov-15 00:20N 36°50' E 025°52'1417.8
2014-Nov-14 23:33N 36°56' E 025°36'7 7.3
2014-Nov-14 22:33N 36°52' E 025°28'1515.1
2014-Nov-14 21:33N 37°06' E 025°22'1110.4
2014-Nov-14 20:31N 37°07' E 025°09'8 7.9
2014-Nov-14 19:33N 37°08' E 024°59'2222.2
2014-Nov-14 18:33N 37°14' E 024°33'4622.2
2014-Nov-14 16:29N 37°39' E 023°44'1819.5
2014-Nov-14 15:34N 37°57' E 023°38'0 0.2
2014-Nov-14 14:33N 37°57' E 023°38'9 4.5
2014-Nov-14 12:33N 37°48' E 023°41'4221.3
2014-Nov-14 10:33N 37°28' E 024°29'2222.4
2014-Nov-14 09:33N 37°15' E 024°51'1716.1
2014-Nov-14 08:30N 37°05' E 025°09'1011.1
2014-Nov-14 07:34N 37°06' E 025°22'10 9.5
2014-Nov-14 06:33N 37°13' E 025°31'1818.5
2014-Nov-14 05:33N 37°02' E 025°50'1212.2
2014-Nov-14 04:33N 36°56' E 026°03'2222.2
2014-Nov-14 03:32N 36°37' E 026°18'3 2.6
2014-Nov-14 02:18N 36°35' E 026°21'1722.8
2014-Nov-14 01:34N 36°49' E 026°10'1111.0
2014-Nov-14 00:34N 36°54' E 025°58'1918.7
2014-Nov-13 23:33N 37°08' E 025°42'1615.8
2014-Nov-13 22:33N 37°06' E 025°22'1110.8
2014-Nov-13 21:33N 37°07' E 025°09'7 7.3
2014-Nov-13 20:34N 37°14' E 025°04'1413.3
2014-Nov-13 19:30N 37°26' E 024°57'1415.3
2014-Nov-13 18:33N 37°30' E 024°39'2221.7
2014-Nov-13 17:33N 37°30' E 024°12'2222.2
2014-Nov-13 16:33N 37°39' E 023°46'11 2.8
2014-Nov-13 12:33N 37°49' E 023°41'4721.3
2014-Nov-13 10:20N 37°26' E 024°33'1722.6
2014-Nov-13 09:33N 37°15' E 024°50'1712.7
2014-Nov-13 08:15N 37°06' E 025°07'1217.1
2014-Nov-13 07:33N 37°06' E 025°22'1615.4
2014-Nov-13 06:33N 37°09' E 025°41'1414.2
2014-Nov-13 05:33N 36°59' E 025°53'  

Dump ship's entire track history